Time;durP1;ratioP1;P1;durP2;ratioP2;P2;SDS_P1;SDS_P2;PMS_P1;PMS_P2;Temp;Humidity;BMP_temperature;BMP_pressure;BME280_temperature;BME280_humidity;BME280_pressure;Samples;Min_cycle;Max_cycle;Signal;HPM_P1;HPM_P2
2022/05/23 00:00:08;;;;;;;4.45;2.65;;;;;;;20.24;66.37;100640.72;5071536;28;20028;-81
2022/05/23 00:02:34;;;;;;;4.05;2.67;;;;;;;20.36;66.28;100639.09;5070908;28;20031;-81
2022/05/23 00:05:00;;;;;;;3.40;2.50;;;;;;;20.31;66.08;100637.25;5071037;28;20029;-81
2022/05/23 00:07:30;;;;;;;3.45;2.50;;;;;;;20.34;66.09;100639.97;5071046;28;20070;-81
2022/05/23 00:09:57;;;;;;;3.40;2.63;;;;;;;20.33;65.95;100638.19;5063213;28;20098;-81
2022/05/23 00:12:23;;;;;;;5.15;2.72;;;;;;;20.31;66.28;100647.00;5084989;28;20040;-81
2022/05/23 00:14:51;;;;;;;4.60;2.70;;;;;;;20.30;66.17;100646.09;5089426;28;20024;-81
2022/05/23 00:17:19;;;;;;;5.00;2.63;;;;;;;20.32;66.06;100654.09;5092591;28;20515;-81
2022/05/23 00:19:44;;;;;;;4.45;2.70;;;;;;;20.29;66.00;100644.31;5091083;28;20024;-81
2022/05/23 00:22:10;;;;;;;5.25;2.45;;;;;;;20.29;66.17;100651.38;5051506;28;20043;-81
2022/05/23 00:24:36;;;;;;;;;;;;;;;20.35;66.14;100654.13;5080628;28;20064;-81
2022/05/23 00:27:02;;;;;;;4.95;2.40;;;;;;;20.30;66.23;100655.84;5073517;28;20352;-82
2022/05/23 00:29:27;;;;;;;4.25;2.60;;;;;;;20.28;66.05;100658.47;5072658;28;20038;-82
2022/05/23 00:37:22;;;;;;;3.30;2.60;;;;;;;20.21;66.06;100645.97;5075741;28;20542;-81
2022/05/23 00:39:48;;;;;;;3.97;2.55;;;;;;;20.23;66.00;100643.34;5073075;28;20489;-82
2022/05/23 00:45:02;;;;;;;3.45;2.45;;;;;;;20.25;66.03;100658.41;5073581;28;20167;-82
2022/05/23 00:47:29;;;;;;;4.85;2.58;;;;;;;20.24;65.72;100650.44;5070571;28;20036;-82
2022/05/23 00:49:55;;;;;;;4.28;2.45;;;;;;;20.26;65.82;100659.31;5082420;28;20481;-82
2022/05/23 00:52:32;;;;;;;4.10;2.55;;;;;;;20.22;65.73;100653.06;5074083;28;20031;-82
2022/05/23 00:55:00;;;;;;;3.97;2.47;;;;;;;20.24;65.90;100661.06;5072264;28;20092;-82
2022/05/23 00:57:29;;;;;;;3.88;2.42;;;;;;;20.17;66.08;100653.88;5071798;28;20032;-82
2022/05/23 00:59:55;;;;;;;6.45;2.67;;;;;;;20.19;65.62;100654.78;5067661;28;20036;-83
2022/05/23 01:02:21;;;;;;;4.22;2.42;;;;;;;20.15;65.55;100643.28;5089240;28;20454;-82
2022/05/23 01:04:46;;;;;;;;;;;;;;;20.28;65.60;100658.47;5091189;28;20047;-82
2022/05/23 01:07:12;;;;;;;6.07;2.50;;;;;;;20.23;65.36;100651.31;5071411;28;20399;-82
2022/05/23 01:09:38;;;;;;;4.28;2.55;;;;;;;20.22;65.28;100654.84;5090589;28;20492;-82
2022/05/23 01:12:04;;;;;;;3.38;2.53;;;;;;;20.20;65.35;100661.88;5090152;28;20067;-82
2022/05/23 01:14:53;;;;;;;6.22;2.70;;;;;;;20.19;65.31;100663.63;5090208;28;20039;-82
2022/05/23 01:17:20;;;;;;;2.90;2.60;;;;;;;20.17;65.37;100654.78;5087963;28;20040;-82
2022/05/23 01:19:46;;;;;;;4.68;2.58;;;;;;;20.16;65.65;100652.09;5089870;28;20390;-82
2022/05/23 01:22:43;;;;;;;4.82;2.38;;;;;;;20.16;65.84;100649.47;5090567;28;20050;-82
2022/05/23 01:25:18;;;;;;;5.57;2.65;;;;;;;20.18;65.77;100650.38;5086131;28;20040;-82
2022/05/23 01:27:44;;;;;;;4.32;2.42;;;;;;;20.08;65.53;100633.44;5089012;28;20101;-82
2022/05/23 01:30:10;;;;;;;3.72;2.50;;;;;;;20.16;65.60;100654.75;5089950;28;20027;-82
2022/05/23 01:32:38;;;;;;;3.60;2.60;;;;;;;20.13;65.47;100655.63;5070964;28;20032;-82
2022/05/23 01:35:08;;;;;;;4.72;3.00;;;;;;;20.14;65.48;100657.38;5085218;28;20118;-81
2022/05/23 01:37:34;;;;;;;4.75;2.65;;;;;;;20.05;65.50;100641.38;5095762;28;20028;-82
2022/05/23 01:39:59;;;;;;;5.50;2.60;;;;;;;20.12;65.63;100659.13;5090235;28;20024;-83
2022/05/23 01:42:25;;;;;;;5.97;2.80;;;;;;;20.15;65.30;100659.19;5071648;28;20032;-83
2022/05/23 01:44:50;;;;;;;4.97;2.50;;;;;;;20.12;65.45;100659.13;5072088;28;20032;-83
2022/05/23 01:47:19;;;;;;;4.00;2.30;;;;;;;19.98;65.51;100640.41;5090136;28;20414;-83
2022/05/23 01:49:45;;;;;;;3.70;2.50;;;;;;;20.04;65.56;100656.34;5056025;28;20025;-82
2022/05/23 01:52:11;;;;;;;5.05;2.30;;;;;;;20.07;65.44;100660.84;5094345;28;20088;-82
2022/05/23 01:54:37;;;;;;;;;;;;;;;20.14;65.37;100662.69;5075638;28;20036;-82
2022/05/23 01:57:04;;;;;;;4.45;2.30;;;;;;;20.10;65.27;100669.69;5073527;28;20345;-82
2022/05/23 02:02:14;;;;;;;2.55;2.35;;;;;;;19.99;65.03;100660.72;5073318;28;20059;-82
2022/05/23 02:04:39;;;;;;;;;;;;;;;20.16;65.13;100673.31;5092435;28;20020;-82
2022/05/23 02:07:05;;;;;;;3.90;2.47;;;;;;;20.09;65.21;100677.66;5059579;28;20355;-82
2022/05/23 02:09:32;;;;;;;3.47;2.60;;;;;;;20.04;65.17;100671.38;5091166;28;20448;-83
2022/05/23 02:11:58;;;;;;;3.85;2.80;;;;;;;19.95;65.19;100656.25;5075582;28;20048;-82
2022/05/23 02:14:24;;;;;;;6.07;2.33;;;;;;;19.96;65.18;100655.41;5099187;28;20085;-82
2022/05/23 02:16:49;;;;;;;3.58;2.50;;;;;;;20.06;65.11;100665.22;5100371;28;20028;-82
2022/05/23 02:19:15;;;;;;;3.58;2.35;;;;;;;20.04;64.94;100669.63;5092884;28;20020;-82
2022/05/23 02:21:41;;;;;;;3.13;2.22;;;;;;;19.99;65.22;100663.38;5094852;28;20058;-82
2022/05/23 02:24:07;;;;;;;4.93;2.25;;;;;;;20.03;65.01;100664.31;5075595;28;20047;-82
2022/05/23 02:26:32;;;;;;;3.58;2.30;;;;;;;20.02;65.06;100670.47;5075570;28;20166;-82
2022/05/23 02:28:59;;;;;;;3.85;2.28;;;;;;;19.93;65.24;100655.34;5075037;28;20020;-82
2022/05/23 02:31:25;;;;;;;3.38;2.40;;;;;;;19.98;65.11;100661.59;5074338;28;20040;-82
2022/05/23 02:33:51;;;;;;;3.05;2.40;;;;;;;20.01;65.00;100663.41;5093619;28;20115;-82
2022/05/23 02:36:17;;;;;;;4.00;2.25;;;;;;;19.96;65.08;100651.81;5094522;28;20078;-82
2022/05/23 02:38:42;;;;;;;3.17;2.28;;;;;;;20.00;65.24;100657.22;5093127;28;20016;-82
2022/05/23 02:41:08;;;;;;;2.97;2.65;;;;;;;19.98;65.00;100652.72;5092179;28;20032;-82
2022/05/23 02:43:34;;;;;;;3.50;2.38;;;;;;;19.93;65.18;100653.56;5099848;28;20397;-82
2022/05/23 02:45:59;;;;;;;5.03;2.72;;;;;;;19.96;65.29;100665.06;5114821;28;20469;-81
2022/05/23 02:48:25;;;;;;;3.58;2.60;;;;;;;19.95;65.24;100666.84;5102179;28;20027;-81
2022/05/23 02:50:51;;;;;;;4.50;2.53;;;;;;;19.76;65.24;100638.31;5094087;28;20050;-81
2022/05/23 02:53:16;;;;;;;6.93;2.85;;;;;;;19.87;65.04;100647.28;5091419;28;20119;-81
2022/05/23 02:55:42;;;;;;;4.72;2.20;;;;;;;19.91;64.89;100655.31;5093478;28;20035;-82
2022/05/23 02:58:08;;;;;;;3.40;2.50;;;;;;;19.79;65.24;100638.34;5074041;28;20039;-81
2022/05/23 03:00:37;;;;;;;2.38;2.17;;;;;;;19.93;65.28;100671.22;5093991;28;20675;-82
2022/05/23 03:03:03;;;;;;;2.65;2.45;;;;;;;19.91;65.30;100657.94;5072754;28;20032;-81
2022/05/23 03:05:29;;;;;;;;;;;;;;;19.93;65.34;100664.16;5075558;28;20028;-82
2022/05/23 03:07:55;;;;;;;3.53;2.40;;;;;;;19.90;65.58;100663.25;5074770;28;19916;-82
2022/05/23 03:10:20;;;;;;;3.60;2.47;;;;;;;19.87;65.26;100658.78;5092319;28;20406;-82
2022/05/23 03:12:46;;;;;;;4.70;2.40;;;;;;;19.86;65.07;100656.13;5091957;28;20097;-82
2022/05/23 03:15:12;;;;;;;2.42;2.22;;;;;;;19.85;65.25;100655.22;5089569;28;20036;-82
2022/05/23 03:17:38;;;;;;;3.22;2.35;;;;;;;19.90;65.24;100671.19;5092362;28;20401;-82
2022/05/23 03:20:05;;;;;;;4.47;2.30;;;;;;;19.86;65.34;100680.84;5077462;28;20040;-82
2022/05/23 03:27:59;;;;;;;4.65;2.42;;;;;;;19.81;65.24;100681.66;5092914;28;20035;-82
2022/05/23 03:30:25;;;;;;;3.58;2.50;;;;;;;19.87;65.44;100695.88;5092875;28;20028;-83
2022/05/23 03:32:51;;;;;;;3.15;2.47;;;;;;;19.76;65.36;100683.34;5073253;28;20107;-83
2022/05/23 03:35:17;;;;;;;2.70;2.20;;;;;;;19.80;65.26;100686.06;5072912;28;20773;-82
2022/05/23 03:37:43;;;;;;;4.35;2.40;;;;;;;19.83;65.32;100696.72;5093381;28;20066;-82
2022/05/23 03:40:09;;;;;;;2.42;2.17;;;;;;;19.80;65.31;100682.53;5091948;28;20024;-83
2022/05/23 03:42:35;;;;;;;4.65;2.20;;;;;;;19.83;65.36;100678.19;5092102;28;20039;-82
2022/05/23 03:45:01;;;;;;;5.95;2.42;;;;;;;19.79;65.70;100667.47;5056392;28;20028;-82
2022/05/23 03:47:27;;;;;;;;;;;;;;;19.82;65.65;100670.19;5074142;28;20035;-82
2022/05/23 03:49:52;;;;;;;7.65;2.40;;;;;;;19.73;65.71;100682.44;5092442;28;20010;-83
2022/05/23 03:52:20;;;;;;;5.80;3.33;;;;;;;19.70;65.96;100676.19;5090605;28;20024;-82
2022/05/23 03:54:46;;;;;;;5.22;3.53;;;;;;;19.63;65.91;100659.28;5090447;28;20569;-83
2022/05/23 03:57:12;;;;;;;;;;;;;;;19.74;66.09;100680.66;5072665;28;20047;-83
2022/05/23 03:59:37;;;;;;;4.95;3.47;;;;;;;19.71;65.97;100678.88;5073996;28;20373;-83
2022/05/23 04:02:03;;;;;;;6.18;3.30;;;;;;;19.73;66.10;100679.78;5091666;28;20488;-82
2022/05/23 04:04:30;;;;;;;5.43;2.95;;;;;;;19.69;66.33;100682.34;5070451;28;20039;-82
2022/05/23 04:07:03;;;;;;;4.28;3.00;;;;;;;19.68;66.03;100677.88;5090035;28;20031;-82
2022/05/23 04:09:29;;;;;;;3.85;3.05;;;;;;;19.73;66.22;100692.16;5072092;28;20039;-82
2022/05/23 04:11:56;;;;;;;4.03;2.85;;;;;;;19.71;66.12;100697.41;5073256;28;20044;-82
2022/05/23 04:14:22;;;;;;;5.32;2.80;;;;;;;19.70;66.35;100686.78;5072235;28;20110;-82
2022/05/23 04:16:49;;;;;;;2.90;2.53;;;;;;;19.67;66.41;100681.44;5087884;28;20126;-82
2022/05/23 04:19:15;;;;;;;2.60;2.38;;;;;;;19.68;66.42;100692.06;5085492;28;20031;-82
2022/05/23 04:21:42;;;;;;;3.53;2.50;;;;;;;19.70;66.34;100685.03;5064578;28;20485;-82
2022/05/23 04:24:09;;;;;;;5.75;2.83;;;;;;;19.68;66.44;100691.13;5073098;28;20028;-82
2022/05/23 04:26:35;;;;;;;4.22;2.70;;;;;;;19.68;66.55;100684.09;5073132;28;20165;-81
2022/05/23 04:29:01;;;;;;;4.30;2.63;;;;;;;19.67;66.70;100692.03;5071954;28;20065;-83
2022/05/23 04:31:27;;;;;;;5.18;2.63;;;;;;;19.61;66.47;100673.38;5072786;28;20039;-83
2022/05/23 04:36:38;;;;;;;5.47;2.55;;;;;;;19.62;66.92;100691.94;5075430;28;20109;-83
2022/05/23 04:39:04;;;;;;;3.63;2.60;;;;;;;19.63;67.11;100690.19;5087431;28;20028;-83
2022/05/23 04:41:30;;;;;;;3.33;2.67;;;;;;;19.62;66.88;100699.91;5073103;28;20103;-83
2022/05/23 04:43:56;;;;;;;3.72;2.70;;;;;;;19.61;67.15;100695.44;5091072;28;20109;-83
2022/05/23 04:46:22;;;;;;;3.80;2.72;;;;;;;19.58;67.39;100694.50;5090781;28;20028;-83
2022/05/23 04:51:32;;;;;;;6.90;3.00;;;;;;;19.47;67.45;100687.31;5071661;28;20078;-83
2022/05/23 04:53:57;;;;;;;4.97;2.92;;;;;;;19.58;67.67;100708.66;5091260;28;20485;-83
2022/05/23 04:56:25;;;;;;;3.30;3.00;;;;;;;19.59;67.71;100709.53;5092003;28;20513;-83
2022/05/23 04:58:51;;;;;;;4.55;2.83;;;;;;;19.42;67.79;100693.38;5071424;28;20024;-84
2022/05/23 05:01:17;;;;;;;9.20;3.00;;;;;;;19.58;67.72;100721.91;5072836;28;20034;-84
2022/05/23 05:03:43;;;;;;;6.10;3.13;;;;;;;19.41;67.78;100684.56;5090632;28;20032;-84
2022/05/23 05:06:09;;;;;;;2.92;2.63;;;;;;;19.51;67.99;100699.72;5090493;28;20031;-83
2022/05/23 05:08:35;;;;;;;3.72;2.65;;;;;;;19.60;68.13;100709.59;5050557;28;20455;-83
2022/05/23 05:11:04;;;;;;;4.70;2.95;;;;;;;19.46;68.23;100687.28;5073825;28;20086;-84
2022/05/23 05:13:32;;;;;;;3.78;2.85;;;;;;;19.63;67.87;100700.78;5048273;28;20040;-84
2022/05/23 05:16:02;;;;;;;3.45;2.65;;;;;;;19.57;67.70;100671.53;5047486;28;20029;-85
2022/05/23 05:18:30;;;;;;;4.78;2.88;;;;;;;19.64;67.83;100682.28;5033600;28;20025;-85
2022/05/23 05:20:57;;;;;;;4.45;3.10;;;;;;;19.35;68.11;100652.66;5060158;28;20039;-85
2022/05/23 05:23:24;;;;;;;3.28;2.83;;;;;;;19.55;67.87;100686.53;5091256;28;20077;-84
2022/05/23 05:25:53;;;;;;;3.45;2.90;;;;;;;19.58;68.26;100698.06;5090670;28;20043;-84
2022/05/23 05:28:19;;;;;;;4.55;2.67;;;;;;;19.36;68.10;100665.03;5060204;28;20028;-83
2022/05/23 05:30:53;;;;;;;4.30;2.40;;;;;;;19.63;68.04;100720.22;5071428;28;20416;-83
2022/05/23 05:33:22;;;;;;;2.97;2.40;;;;;;;19.44;68.13;100691.66;5052435;28;20405;-83
2022/05/23 05:35:55;;;;;;;4.38;2.95;;;;;;;19.61;68.21;100705.16;5071318;28;20085;-83
2022/05/23 05:38:29;;;;;;;2.97;2.53;;;;;;;19.67;68.01;100721.16;5071369;28;20024;-84
2022/05/23 05:41:03;;;;;;;2.70;2.50;;;;;;;19.65;68.13;100718.47;5054629;28;20031;-83
2022/05/23 05:43:40;;;;;;;3.65;2.60;;;;;;;19.47;68.02;100678.44;5072462;28;20028;-83
2022/05/23 05:46:13;;;;;;;4.80;2.97;;;;;;;19.64;68.00;100719.38;5065235;28;20027;-84
2022/05/23 05:48:41;;;;;;;2.83;2.63;;;;;;;19.56;67.88;100696.22;5051903;28;20119;-83
2022/05/23 05:51:11;;;;;;;4.50;2.80;;;;;;;19.57;68.00;100695.38;5056146;28;20405;-83
2022/05/23 05:53:36;;;;;;;3.03;2.78;;;;;;;19.56;68.16;100690.94;5058658;28;20036;-83
2022/05/23 05:56:03;;;;;;;3.58;2.80;;;;;;;19.65;68.25;100705.22;5053057;28;20025;-83
2022/05/23 05:58:29;;;;;;;3.08;2.70;;;;;;;19.67;68.07;100714.09;5052472;28;20035;-83
2022/05/23 06:00:55;;;;;;;4.38;2.83;;;;;;;19.63;68.16;100708.72;5051755;28;20032;-83
2022/05/23 06:03:20;;;;;;;3.38;2.47;;;;;;;19.61;68.16;100705.16;5052403;28;20037;-83
2022/05/23 06:11:23;;;;;;;4.25;2.65;;;;;;;19.63;68.61;100712.25;5054895;28;20040;-84
2022/05/23 06:13:49;;;;;;;7.15;3.08;;;;;;;19.68;68.39;100714.97;5057953;28;20552;-82
2022/05/23 06:16:16;;;;;;;3.65;2.63;;;;;;;19.59;68.49;100701.59;5091277;28;20065;-84
2022/05/23 06:18:42;;;;;;;5.28;2.80;;;;;;;19.62;68.62;100723.75;5071604;28;20028;-83
2022/05/23 06:21:09;;;;;;;5.05;2.85;;;;;;;19.50;68.43;100713.81;5072773;28;20059;-83
2022/05/23 06:23:39;;;;;;;3.05;2.30;;;;;;;19.57;68.80;100725.41;5097426;28;20043;-83
2022/05/23 06:26:04;;;;;;;2.92;2.65;;;;;;;19.54;68.61;100714.78;5084057;28;20135;-83
2022/05/23 06:28:30;;;;;;;3.05;2.70;;;;;;;19.63;68.54;100719.31;5099119;28;20099;-83
2022/05/23 06:30:59;;;;;;;4.65;2.92;;;;;;;19.57;68.38;100708.63;5090132;28;20032;-84
2022/05/23 06:33:25;;;;;;;3.53;3.00;;;;;;;19.53;68.57;100711.22;5092208;28;20036;-83
2022/05/23 06:35:51;;;;;;;3.00;2.65;;;;;;;19.60;68.52;100724.56;5098907;28;20034;-83
2022/05/23 06:38:17;;;;;;;3.45;2.88;;;;;;;19.69;68.24;100727.38;5098877;28;20553;-83
2022/05/23 06:40:43;;;;;;;2.90;2.58;;;;;;;19.67;68.39;100730.00;5079383;28;20413;-83
2022/05/23 06:43:09;;;;;;;3.10;2.40;;;;;;;19.49;68.26;100700.53;5092583;28;20118;-84
2022/05/23 06:45:35;;;;;;;3.35;2.53;;;;;;;19.69;68.18;100730.91;5081479;28;20099;-83
2022/05/23 06:48:01;;;;;;;3.78;2.75;;;;;;;19.68;68.13;100726.50;5075650;28;20046;-83
2022/05/23 06:50:27;;;;;;;3.10;2.80;;;;;;;19.66;68.31;100719.38;5114896;28;20415;-84
2022/05/23 06:52:53;;;;;;;2.88;2.42;;;;;;;19.27;68.17;100649.88;5114735;28;20028;-82
2022/05/23 06:55:18;;;;;;;3.67;2.80;;;;;;;19.48;68.58;100694.38;5114618;28;20028;-83
2022/05/23 06:57:44;;;;;;;3.67;2.95;;;;;;;19.50;68.43;100710.28;5096829;28;20122;-84
2022/05/23 07:00:10;;;;;;;4.18;2.80;;;;;;;19.55;68.44;100716.53;5102041;28;20517;-83
2022/05/23 07:02:39;;;;;;;;;;;;;;;19.72;68.47;100733.63;5103991;28;20111;-83
2022/05/23 07:13:18;;;;;;;3.47;2.97;;;;;;;19.70;68.37;100742.44;5092559;28;20044;-83
2022/05/23 07:15:48;;;;;;;3.70;2.97;;;;;;;19.62;68.70;100739.63;5091199;28;20047;-83
2022/05/23 07:18:15;;;;;;;2.92;2.50;;;;;;;19.68;68.43;100742.38;5081484;28;20036;-82
2022/05/23 07:20:41;;;;;;;3.80;2.50;;;;;;;19.67;68.66;100742.34;5059020;28;20396;-82
2022/05/23 07:23:07;;;;;;;3.35;2.60;;;;;;;19.72;68.68;100746.88;5071897;28;20536;-84
2022/05/23 07:25:33;;;;;;;;;;;;;;;19.75;68.63;100746.06;5077154;28;20024;-84
2022/05/23 07:27:59;;;;;;;3.08;2.65;;;;;;;19.65;68.60;100728.19;5074411;28;19946;-83
2022/05/23 07:30:28;;;;;;;4.05;2.50;;;;;;;19.74;68.52;100752.22;5082689;28;20067;-83
2022/05/23 07:32:57;;;;;;;4.22;2.90;;;;;;;19.46;68.53;100700.50;5078666;28;20028;-83
2022/05/23 07:35:24;;;;;;;4.35;2.72;;;;;;;19.73;68.73;100747.78;5055256;28;20061;-82
2022/05/23 07:37:49;;;;;;;5.18;2.67;;;;;;;19.66;68.72;100744.13;5054699;28;20090;-83
2022/05/23 07:40:16;;;;;;;3.47;2.70;;;;;;;19.70;68.88;100750.38;5099508;28;20029;-83
2022/05/23 07:42:43;;;;;;;3.67;2.70;;;;;;;19.63;68.39;100729.94;5064750;28;20032;-83
2022/05/23 07:45:10;;;;;;;3.38;2.80;;;;;;;19.77;68.62;100762.88;5079768;28;20066;-83
2022/05/23 07:47:37;;;;;;;3.05;2.65;;;;;;;19.29;68.54;100682.56;5076079;28;20055;-83
2022/05/23 07:50:04;;;;;;;3.03;2.63;;;;;;;19.53;68.55;100720.91;5083202;28;20549;-83
2022/05/23 07:52:29;;;;;;;3.22;2.92;;;;;;;19.51;68.70;100715.63;5073543;28;20024;-83
2022/05/23 08:00:37;;;;;;;4.57;2.60;;;;;;;19.52;68.41;100703.25;5102402;28;20063;-83
2022/05/23 08:03:13;;;;;;;4.43;2.85;;;;;;;19.42;68.52;100696.03;5063217;28;20024;-83
2022/05/23 08:05:39;;;;;;;;;;;;;;;19.96;68.35;100776.41;5065385;28;20020;-83
2022/05/23 08:08:05;;;;;;;3.20;2.90;;;;;;;19.53;68.51;100716.50;5083309;28;20277;-83
2022/05/23 08:10:30;;;;;;;2.85;2.65;;;;;;;19.89;68.64;100776.28;5099705;28;20028;-82
2022/05/23 08:12:57;;;;;;;3.22;2.92;;;;;;;19.89;68.33;100765.69;5098172;28;20119;-82
2022/05/23 08:15:26;;;;;;;3.30;3.00;;;;;;;19.93;68.71;100778.13;5077272;28;20115;-82
2022/05/23 08:17:52;;;;;;;4.00;2.67;;;;;;;19.91;68.67;100769.25;5101047;28;20118;-82
2022/05/23 08:20:18;;;;;;;4.72;2.75;;;;;;;19.91;68.65;100768.38;5092495;28;20039;-83
2022/05/23 08:22:45;;;;;;;3.40;3.10;;;;;;;19.86;68.79;100767.44;5084482;28;20035;-83
2022/05/23 08:25:11;;;;;;;3.38;2.72;;;;;;;19.89;68.74;100772.75;5091873;28;20485;-83
2022/05/23 08:27:36;;;;;;;3.00;2.70;;;;;;;19.87;68.91;100767.44;5097999;28;20517;-83
2022/05/23 08:30:04;;;;;;;3.72;2.95;;;;;;;19.82;68.83;100760.28;5101563;28;20073;-83
2022/05/23 08:32:29;;;;;;;3.85;2.50;;;;;;;19.96;68.55;100781.69;5075485;28;20088;-83
2022/05/23 08:34:55;;;;;;;2.85;2.65;;;;;;;19.95;68.65;100783.47;5102609;28;20031;-83
2022/05/23 08:37:21;;;;;;;3.45;2.97;;;;;;;19.97;68.75;100780.84;5093685;28;20466;-82
2022/05/23 08:39:47;;;;;;;3.20;2.90;;;;;;;19.97;68.89;100775.56;5093058;28;20031;-83
2022/05/23 08:42:58;;;;;;;5.03;3.28;;;;;;;19.99;68.82;100780.00;5102541;28;20441;-83
2022/05/23 08:45:25;;;;;;;3.28;2.75;;;;;;;20.04;68.70;100782.72;5019261;28;20082;-84
2022/05/23 08:47:55;;;;;;;8.20;3.83;;;;;;;20.02;68.58;100787.97;5073531;28;20084;-84
2022/05/23 08:50:27;;;;;;;11.55;3.95;;;;;;;20.01;68.18;100764.13;5083232;28;20484;-83
2022/05/23 08:52:59;;;;;;;18.42;4.70;;;;;;;20.16;68.47;100792.63;5076350;28;20019;-82
2022/05/23 08:55:26;;;;;;;40.33;5.95;;;;;;;20.13;68.55;100790.84;5078838;28;20063;-85
2022/05/23 08:58:11;;;;;;;67.55;8.20;;;;;;;20.10;68.62;100789.00;5086051;28;20020;-89
2022/05/23 09:00:48;;;;;;;30.67;6.28;;;;;;;20.21;68.27;100788.28;5082095;28;20122;-89
2022/05/23 09:03:25;;;;;;;28.83;5.65;;;;;;;19.93;68.89;100771.94;5077716;28;20081;-87
2022/05/23 09:06:15;;;;;;;30.15;6.00;;;;;;;20.04;68.94;100780.94;5068118;28;20024;-88
2022/05/23 09:08:46;;;;;;;34.40;5.80;;;;;;;20.08;68.78;100787.19;5073450;28;20118;-87
2022/05/23 09:11:34;;;;;;;17.27;5.20;;;;;;;20.07;68.91;100782.78;5092827;28;20047;-87
2022/05/23 09:14:00;;;;;;;18.90;4.75;;;;;;;20.04;69.21;100786.25;5071133;28;20024;-85
2022/05/23 09:16:40;;;;;;;13.85;4.75;;;;;;;20.04;69.15;100778.28;5073167;28;20485;-83
2022/05/23 09:19:37;;;;;;;18.75;4.63;;;;;;;20.09;69.29;100776.63;5073987;28;20028;-83
2022/05/23 09:22:13;;;;;;;13.80;4.63;;;;;;;20.11;69.40;100766.94;5053524;28;20040;-82
2022/05/23 09:24:50;;;;;;;18.23;4.45;;;;;;;20.11;68.96;100774.88;5091439;28;20042;-84
2022/05/23 09:27:24;;;;;;;19.65;4.50;;;;;;;20.07;69.25;100778.38;5091635;28;20032;-84
2022/05/23 09:29:52;;;;;;;13.73;4.68;;;;;;;20.18;69.56;100786.47;5091549;28;20194;-82
2022/05/23 09:32:23;;;;;;;14.38;4.10;;;;;;;20.22;69.45;100792.72;5073541;28;20031;-82
2022/05/23 09:34:55;;;;;;;14.23;4.32;;;;;;;20.02;69.43;100793.28;5073279;28;20020;-81
2022/05/23 09:37:30;;;;;;;15.73;4.32;;;;;;;19.97;69.55;100792.34;5091659;28;20035;-82
2022/05/23 09:39:58;;;;;;;12.15;4.10;;;;;;;20.15;68.45;100791.75;5073798;28;20592;-84
2022/05/23 09:48:11;;;;;;;167.23;19.13;;;;;;;20.09;68.98;100792.53;5076505;28;20455;-82
2022/05/23 09:50:45;;;;;;;111.22;14.13;;;;;;;20.08;69.03;100793.38;5073487;28;20020;-82
2022/05/23 09:53:22;;;;;;;110.10;14.85;;;;;;;20.06;69.29;100791.59;5091280;28;20461;-82
2022/05/23 09:55:47;;;;;;;;;;;;;;;20.13;69.06;100797.00;5073959;28;20089;-83
2022/05/23 09:58:22;;;;;;;138.82;16.05;;;;;;;20.03;69.11;100786.25;5072586;28;19908;-84
2022/05/23 10:01:08;;;;;;;141.95;15.63;;;;;;;20.08;69.21;100779.25;5073378;28;20481;-83
2022/05/23 10:03:34;;;;;;;128.93;14.77;;;;;;;19.93;69.08;100756.94;5073540;28;20081;-82
2022/05/23 10:06:09;;;;;;;129.18;17.13;;;;;;;20.09;68.98;100789.00;5091469;28;20032;-83
2022/05/23 10:08:46;;;;;;;122.05;14.77;;;;;;;20.09;68.98;100776.63;5073391;28;20121;-82
2022/05/23 10:11:30;;;;;;;105.68;14.18;;;;;;;20.13;69.14;100786.41;5057652;28;20474;-82
2022/05/23 10:13:58;;;;;;;97.00;12.98;;;;;;;20.10;69.32;100790.75;5095096;28;20051;-82
2022/05/23 10:16:26;;;;;;;351.35;23.33;;;;;;;20.14;69.29;100798.78;5077035;28;20044;-83
2022/05/23 10:19:03;;;;;;;270.23;21.30;;;;;;;20.21;69.14;100799.75;5094999;28;20031;-84
2022/05/23 10:21:36;;;;;;;114.65;10.60;;;;;;;20.29;68.05;100798.13;5077166;28;20062;-84
2022/05/23 10:24:24;;;;;;;98.60;11.07;;;;;;;20.20;68.06;100805.94;5094908;28;20070;-83
2022/05/23 10:26:53;;;;;;;94.03;9.63;;;;;;;20.16;67.85;100790.84;5076854;28;20409;-88
2022/05/23 10:29:26;;;;;;;55.63;7.55;;;;;;;19.99;67.96;100795.91;5060040;28;20039;-85
2022/05/23 10:31:55;;;;;;;49.35;7.32;;;;;;;20.06;68.75;100805.72;5094711;28;20401;-84
2022/05/23 10:34:39;;;;;;;53.88;7.18;;;;;;;19.87;68.51;100771.84;5094656;28;20025;-85
2022/05/23 10:37:19;;;;;;;66.95;7.60;;;;;;;19.99;68.98;100779.13;5076574;28;20031;-85
2022/05/23 10:42:51;;;;;;;44.70;6.20;;;;;;;20.14;69.12;100788.19;5079295;28;20035;-85
2022/05/23 10:45:36;;;;;;;49.88;6.13;;;;;;;20.16;68.91;100801.47;5076724;28;20059;-85
2022/05/23 10:48:21;;;;;;;34.35;5.97;;;;;;;20.14;68.89;100787.28;5094378;28;20028;-85
2022/05/23 10:50:54;;;;;;;38.58;6.47;;;;;;;20.19;68.87;100803.25;5094381;28;20024;-85
2022/05/23 10:53:23;;;;;;;43.65;6.13;;;;;;;20.13;69.33;100807.63;5076280;28;20115;-85
2022/05/23 10:56:00;;;;;;;36.45;6.15;;;;;;;20.12;69.28;100807.59;5094290;28;20085;-84
2022/05/23 10:59:11;;;;;;;33.15;6.30;;;;;;;20.07;69.53;100806.63;5094324;28;20024;-84
2022/05/23 11:02:04;;;;;;;32.38;6.22;;;;;;;20.12;69.31;100804.94;5094177;28;20104;-84
2022/05/23 11:04:54;;;;;;;33.60;6.20;;;;;;;20.10;69.42;100801.38;5094138;28;20111;-86
2022/05/23 11:07:29;;;;;;;31.88;6.20;;;;;;;20.09;69.47;100795.19;5094193;28;20024;-86
2022/05/23 11:10:17;;;;;;;31.00;5.88;;;;;;;20.13;69.48;100796.13;5094003;28;20032;-86
2022/05/23 11:12:48;;;;;;;27.85;5.97;;;;;;;20.14;69.43;100793.47;5075652;28;20109;-85
2022/05/23 11:15:32;;;;;;;22.42;5.85;;;;;;;20.20;68.96;100784.75;5093999;28;20165;-86
2022/05/23 11:18:05;;;;;;;30.77;5.65;;;;;;;20.21;69.10;100791.81;5075957;28;20075;-85
2022/05/23 11:20:38;;;;;;;37.28;5.75;;;;;;;20.13;69.13;100788.19;5076065;28;20036;-85
2022/05/23 11:23:15;;;;;;;30.30;5.80;;;;;;;20.07;68.64;100762.47;5075228;28;20032;-86
2022/05/23 11:25:47;;;;;;;26.23;5.20;;;;;;;20.22;68.58;100788.31;5075870;28;20028;-86
2022/05/23 11:34:30;;;;;;;26.50;4.93;;;;;;;20.16;69.67;100798.81;5090080;28;20089;-84
2022/05/23 11:37:42;;;;;;;22.13;4.70;;;;;;;20.14;69.29;100785.53;5093719;28;20489;-87
2022/05/23 11:40:06;;;;;;;20.27;4.60;;;;;;;20.20;68.90;100794.47;5079716;28;20036;-84
2022/05/23 11:42:50;;;;;;;26.60;5.15;;;;;;;20.22;69.17;100793.59;5093352;28;20531;-84
2022/05/23 11:48:39;;;;;;;17.95;4.22;;;;;;;20.15;69.65;100799.69;5064582;28;20035;-84
2022/05/23 11:51:23;;;;;;;18.45;4.50;;;;;;;20.12;69.29;100787.25;5073108;28;20103;-83
2022/05/23 11:54:01;;;;;;;17.48;4.53;;;;;;;20.18;69.35;100804.16;5074545;28;20028;-84
2022/05/23 11:56:42;;;;;;;23.88;4.95;;;;;;;20.07;69.63;100788.09;5092787;28;20028;-83
2022/05/23 11:59:29;;;;;;;13.00;4.30;;;;;;;20.13;69.52;100790.84;5075043;28;20047;-84
2022/05/23 12:02:07;;;;;;;18.13;4.53;;;;;;;20.21;69.36;100801.53;5051498;28;20036;-83
2022/05/23 12:04:33;;;;;;;15.13;4.25;;;;;;;20.21;69.42;100809.47;5093050;28;20016;-84
2022/05/23 12:06:59;;;;;;;12.43;3.90;;;;;;;20.16;69.29;100813.84;5074938;28;20031;-85
2022/05/23 12:09:33;;;;;;;15.43;4.47;;;;;;;20.13;69.53;100790.84;5074939;28;20032;-85
2022/05/23 12:12:30;;;;;;;17.92;4.18;;;;;;;20.22;69.67;100809.53;5074549;28;20048;-85
2022/05/23 12:14:56;;;;;;;14.10;4.45;;;;;;;20.21;69.70;100798.88;5092284;28;20024;-85
2022/05/23 12:17:24;;;;;;;16.52;4.22;;;;;;;20.23;69.42;100807.75;5074730;28;20451;-85
2022/05/23 12:19:55;;;;;;;19.05;4.13;;;;;;;20.24;69.42;100807.78;5092496;28;20032;-85
2022/05/23 12:22:25;;;;;;;15.32;4.75;;;;;;;20.24;69.41;100818.38;5073369;28;20066;-86
2022/05/23 12:25:09;;;;;;;14.43;4.22;;;;;;;20.27;69.32;100831.69;5074548;28;20500;-85
2022/05/23 12:27:37;;;;;;;15.43;4.20;;;;;;;20.26;69.48;100832.56;5092474;28;20089;-85
2022/05/23 12:30:20;;;;;;;14.60;4.53;;;;;;;20.26;69.57;100829.91;5092539;28;20020;-84
2022/05/23 12:33:10;;;;;;;10.98;3.80;;;;;;;20.20;69.58;100819.22;5092378;28;20060;-85
2022/05/23 12:35:39;;;;;;;11.90;3.88;;;;;;;20.26;69.68;100839.63;5092350;28;20047;-85